sensor_id;sensor_type;location;lat;lon;timestamp;P1;durP1;ratioP1;P2;durP2;ratioP2
3423;SDS011;72707;50.120;8.500;2024-03-07T00:02:10;269.13;;;88.03;;
3423;SDS011;72707;50.120;8.500;2024-03-07T00:04:36;283.00;;;89.40;;
3423;SDS011;72707;50.120;8.500;2024-03-07T00:07:02;272.27;;;88.57;;
3423;SDS011;72707;50.120;8.500;2024-03-07T00:09:32;274.77;;;86.60;;
3423;SDS011;72707;50.120;8.500;2024-03-07T00:11:59;272.33;;;86.23;;
3423;SDS011;72707;50.120;8.500;2024-03-07T00:14:25;287.93;;;93.53;;
3423;SDS011;72707;50.120;8.500;2024-03-07T00:16:52;281.47;;;89.83;;
3423;SDS011;72707;50.120;8.500;2024-03-07T00:19:18;277.83;;;89.23;;
3423;SDS011;72707;50.120;8.500;2024-03-07T00:21:43;271.13;;;85.97;;
3423;SDS011;72707;50.120;8.500;2024-03-07T00:24:09;272.23;;;83.20;;
3423;SDS011;72707;50.120;8.500;2024-03-07T00:26:35;271.00;;;84.20;;
3423;SDS011;72707;50.120;8.500;2024-03-07T00:29:01;273.13;;;83.80;;
3423;SDS011;72707;50.120;8.500;2024-03-07T00:31:27;266.73;;;84.37;;
3423;SDS011;72707;50.120;8.500;2024-03-07T00:33:54;268.07;;;85.17;;
3423;SDS011;72707;50.120;8.500;2024-03-07T00:36:21;276.07;;;89.73;;
3423;SDS011;72707;50.120;8.500;2024-03-07T00:38:47;263.53;;;87.23;;
3423;SDS011;72707;50.120;8.500;2024-03-07T00:41:12;257.53;;;83.80;;
3423;SDS011;72707;50.120;8.500;2024-03-07T00:43:39;254.33;;;79.90;;
3423;SDS011;72707;50.120;8.500;2024-03-07T00:46:05;270.83;;;88.57;;
3423;SDS011;72707;50.120;8.500;2024-03-07T00:48:31;258.57;;;80.13;;
3423;SDS011;72707;50.120;8.500;2024-03-07T00:50:57;259.87;;;81.87;;
3423;SDS011;72707;50.120;8.500;2024-03-07T00:53:22;264.23;;;84.37;;
3423;SDS011;72707;50.120;8.500;2024-03-07T00:55:48;262.03;;;83.30;;
3423;SDS011;72707;50.120;8.500;2024-03-07T00:58:13;269.47;;;85.40;;
3423;SDS011;72707;50.120;8.500;2024-03-07T01:00:39;267.27;;;88.17;;
3423;SDS011;72707;50.120;8.500;2024-03-07T01:03:07;266.17;;;83.97;;
3423;SDS011;72707;50.120;8.500;2024-03-07T01:05:36;267.57;;;85.27;;
3423;SDS011;72707;50.120;8.500;2024-03-07T01:08:01;266.30;;;86.20;;
3423;SDS011;72707;50.120;8.500;2024-03-07T01:10:27;264.63;;;84.00;;
3423;SDS011;72707;50.120;8.500;2024-03-07T01:12:53;273.60;;;85.33;;
3423;SDS011;72707;50.120;8.500;2024-03-07T01:15:22;264.90;;;83.17;;
3423;SDS011;72707;50.120;8.500;2024-03-07T01:17:48;274.00;;;90.83;;
3423;SDS011;72707;50.120;8.500;2024-03-07T01:20:14;263.67;;;85.17;;
3423;SDS011;72707;50.120;8.500;2024-03-07T01:22:39;271.00;;;88.10;;
3423;SDS011;72707;50.120;8.500;2024-03-07T01:25:05;270.23;;;86.63;;
3423;SDS011;72707;50.120;8.500;2024-03-07T01:27:31;273.00;;;89.10;;
3423;SDS011;72707;50.120;8.500;2024-03-07T01:29:57;270.50;;;86.80;;
3423;SDS011;72707;50.120;8.500;2024-03-07T01:32:22;272.10;;;87.50;;
3423;SDS011;72707;50.120;8.500;2024-03-07T01:34:48;265.50;;;84.57;;
3423;SDS011;72707;50.120;8.500;2024-03-07T01:37:14;269.10;;;84.07;;
3423;SDS011;72707;50.120;8.500;2024-03-07T01:39:39;263.80;;;82.50;;
3423;SDS011;72707;50.120;8.500;2024-03-07T01:42:05;275.73;;;87.47;;
3423;SDS011;72707;50.120;8.500;2024-03-07T01:44:33;270.70;;;88.13;;
3423;SDS011;72707;50.120;8.500;2024-03-07T01:46:58;282.07;;;91.83;;
3423;SDS011;72707;50.120;8.500;2024-03-07T01:49:29;271.17;;;83.70;;
3423;SDS011;72707;50.120;8.500;2024-03-07T01:51:55;255.60;;;82.00;;
3423;SDS011;72707;50.120;8.500;2024-03-07T01:54:22;260.27;;;83.67;;
3423;SDS011;72707;50.120;8.500;2024-03-07T01:56:48;259.63;;;77.17;;
3423;SDS011;72707;50.120;8.500;2024-03-07T01:59:13;252.97;;;80.13;;
3423;SDS011;72707;50.120;8.500;2024-03-07T02:01:40;247.83;;;79.87;;
3423;SDS011;72707;50.120;8.500;2024-03-07T02:06:42;233.90;;;69.60;;
3423;SDS011;72707;50.120;8.500;2024-03-07T02:09:08;244.13;;;72.43;;
3423;SDS011;72707;50.120;8.500;2024-03-07T02:58:06;248.37;;;70.60;;
3423;SDS011;72707;50.120;8.500;2024-03-07T03:00:32;245.30;;;71.43;;
3423;SDS011;72707;50.120;8.500;2024-03-07T03:02:59;245.90;;;69.30;;
3423;SDS011;72707;50.120;8.500;2024-03-07T03:05:25;241.60;;;71.67;;
3423;SDS011;72707;50.120;8.500;2024-03-07T03:07:51;241.90;;;68.33;;
3423;SDS011;72707;50.120;8.500;2024-03-07T03:10:21;241.60;;;68.93;;
3423;SDS011;72707;50.120;8.500;2024-03-07T03:12:54;237.97;;;68.67;;
3423;SDS011;72707;50.120;8.500;2024-03-07T03:15:22;248.40;;;74.33;;
3423;SDS011;72707;50.120;8.500;2024-03-07T03:17:48;245.60;;;74.37;;
3423;SDS011;72707;50.120;8.500;2024-03-07T03:20:15;241.47;;;72.50;;
3423;SDS011;72707;50.120;8.500;2024-03-07T03:22:53;239.07;;;68.73;;
3423;SDS011;72707;50.120;8.500;2024-03-07T03:25:22;237.40;;;67.43;;
3423;SDS011;72707;50.120;8.500;2024-03-07T03:27:48;238.67;;;70.77;;
3423;SDS011;72707;50.120;8.500;2024-03-07T03:30:14;246.53;;;71.03;;
3423;SDS011;72707;50.120;8.500;2024-03-07T03:32:43;234.47;;;66.73;;
3423;SDS011;72707;50.120;8.500;2024-03-07T03:35:09;240.97;;;67.10;;
3423;SDS011;72707;50.120;8.500;2024-03-07T03:37:38;242.00;;;70.80;;
3423;SDS011;72707;50.120;8.500;2024-03-07T03:40:07;244.87;;;68.60;;
3423;SDS011;72707;50.120;8.500;2024-03-07T03:42:38;241.77;;;69.30;;
3423;SDS011;72707;50.120;8.500;2024-03-07T03:45:05;241.60;;;68.57;;
3423;SDS011;72707;50.120;8.500;2024-03-07T03:47:33;240.17;;;68.63;;
3423;SDS011;72707;50.120;8.500;2024-03-07T03:50:00;243.23;;;68.07;;
3423;SDS011;72707;50.120;8.500;2024-03-07T03:52:26;250.27;;;70.80;;
3423;SDS011;72707;50.120;8.500;2024-03-07T03:54:54;242.60;;;67.93;;
3423;SDS011;72707;50.120;8.500;2024-03-07T03:57:19;245.87;;;68.90;;
3423;SDS011;72707;50.120;8.500;2024-03-07T03:59:45;242.97;;;67.47;;
3423;SDS011;72707;50.120;8.500;2024-03-07T04:02:11;243.47;;;69.50;;
3423;SDS011;72707;50.120;8.500;2024-03-07T04:04:40;237.50;;;68.53;;
3423;SDS011;72707;50.120;8.500;2024-03-07T04:07:06;244.90;;;71.43;;
3423;SDS011;72707;50.120;8.500;2024-03-07T04:09:32;239.27;;;68.30;;
3423;SDS011;72707;50.120;8.500;2024-03-07T04:11:58;238.03;;;68.00;;
3423;SDS011;72707;50.120;8.500;2024-03-07T04:14:24;232.67;;;67.90;;
3423;SDS011;72707;50.120;8.500;2024-03-07T04:16:50;236.83;;;67.60;;
3423;SDS011;72707;50.120;8.500;2024-03-07T04:19:16;241.20;;;71.27;;
3423;SDS011;72707;50.120;8.500;2024-03-07T04:21:45;237.17;;;68.23;;
3423;SDS011;72707;50.120;8.500;2024-03-07T04:24:11;231.27;;;65.17;;
3423;SDS011;72707;50.120;8.500;2024-03-07T04:26:38;234.07;;;66.27;;
3423;SDS011;72707;50.120;8.500;2024-03-07T04:29:06;231.67;;;65.97;;
3423;SDS011;72707;50.120;8.500;2024-03-07T04:31:33;241.30;;;71.97;;
3423;SDS011;72707;50.120;8.500;2024-03-07T04:33:59;221.40;;;66.33;;
3423;SDS011;72707;50.120;8.500;2024-03-07T04:36:25;229.37;;;67.50;;
3423;SDS011;72707;50.120;8.500;2024-03-07T04:38:51;234.30;;;67.30;;
3423;SDS011;72707;50.120;8.500;2024-03-07T04:41:17;233.40;;;68.47;;
3423;SDS011;72707;50.120;8.500;2024-03-07T04:43:43;229.33;;;67.37;;
3423;SDS011;72707;50.120;8.500;2024-03-07T04:46:09;226.90;;;67.73;;
3423;SDS011;72707;50.120;8.500;2024-03-07T04:48:35;221.60;;;67.93;;
3423;SDS011;72707;50.120;8.500;2024-03-07T04:51:02;210.83;;;66.33;;
3423;SDS011;72707;50.120;8.500;2024-03-07T04:53:28;215.33;;;64.17;;
3423;SDS011;72707;50.120;8.500;2024-03-07T04:55:54;224.13;;;69.90;;
3423;SDS011;72707;50.120;8.500;2024-03-07T04:58:21;225.53;;;65.87;;
3423;SDS011;72707;50.120;8.500;2024-03-07T05:00:47;217.77;;;65.57;;
3423;SDS011;72707;50.120;8.500;2024-03-07T05:03:13;224.00;;;65.60;;
3423;SDS011;72707;50.120;8.500;2024-03-07T05:05:38;278.57;;;80.53;;
3423;SDS011;72707;50.120;8.500;2024-03-07T05:10:54;214.47;;;61.87;;
3423;SDS011;72707;50.120;8.500;2024-03-07T05:13:20;222.93;;;64.53;;
3423;SDS011;72707;50.120;8.500;2024-03-07T05:15:46;213.83;;;62.50;;
3423;SDS011;72707;50.120;8.500;2024-03-07T05:18:12;213.87;;;63.30;;
3423;SDS011;72707;50.120;8.500;2024-03-07T05:20:39;211.17;;;65.03;;
3423;SDS011;72707;50.120;8.500;2024-03-07T05:23:05;209.07;;;63.20;;
3423;SDS011;72707;50.120;8.500;2024-03-07T05:25:31;202.30;;;60.07;;
3423;SDS011;72707;50.120;8.500;2024-03-07T05:30:33;210.87;;;63.33;;
3423;SDS011;72707;50.120;8.500;2024-03-07T05:33:00;205.87;;;58.60;;
3423;SDS011;72707;50.120;8.500;2024-03-07T05:37:56;213.60;;;62.63;;
3423;SDS011;72707;50.120;8.500;2024-03-07T05:40:23;202.20;;;59.87;;
3423;SDS011;72707;50.120;8.500;2024-03-07T05:42:49;207.77;;;61.27;;
3423;SDS011;72707;50.120;8.500;2024-03-07T05:45:15;212.07;;;62.77;;
3423;SDS011;72707;50.120;8.500;2024-03-07T05:47:42;204.70;;;62.77;;
3423;SDS011;72707;50.120;8.500;2024-03-07T05:50:08;209.20;;;62.47;;
3423;SDS011;72707;50.120;8.500;2024-03-07T05:52:35;207.07;;;61.40;;
3423;SDS011;72707;50.120;8.500;2024-03-07T05:55:02;198.37;;;63.27;;
3423;SDS011;72707;50.120;8.500;2024-03-07T05:57:28;207.43;;;64.20;;
3423;SDS011;72707;50.120;8.500;2024-03-07T05:59:54;191.80;;;57.20;;
3423;SDS011;72707;50.120;8.500;2024-03-07T06:02:21;199.90;;;60.13;;
3423;SDS011;72707;50.120;8.500;2024-03-07T06:04:47;203.93;;;66.20;;
3423;SDS011;72707;50.120;8.500;2024-03-07T06:07:13;205.23;;;60.70;;
3423;SDS011;72707;50.120;8.500;2024-03-07T06:09:39;204.20;;;62.30;;
3423;SDS011;72707;50.120;8.500;2024-03-07T06:12:05;215.27;;;64.30;;
3423;SDS011;72707;50.120;8.500;2024-03-07T06:14:33;215.57;;;64.63;;
3423;SDS011;72707;50.120;8.500;2024-03-07T06:16:59;200.30;;;61.30;;
3423;SDS011;72707;50.120;8.500;2024-03-07T06:19:26;203.30;;;63.43;;
3423;SDS011;72707;50.120;8.500;2024-03-07T06:21:51;209.63;;;64.37;;
3423;SDS011;72707;50.120;8.500;2024-03-07T06:24:19;208.13;;;61.23;;
3423;SDS011;72707;50.120;8.500;2024-03-07T06:26:47;202.23;;;60.77;;
3423;SDS011;72707;50.120;8.500;2024-03-07T06:29:24;204.40;;;62.20;;
3423;SDS011;72707;50.120;8.500;2024-03-07T06:31:51;202.40;;;61.50;;
3423;SDS011;72707;50.120;8.500;2024-03-07T06:34:18;209.53;;;63.13;;
3423;SDS011;72707;50.120;8.500;2024-03-07T06:36:44;210.23;;;64.20;;
3423;SDS011;72707;50.120;8.500;2024-03-07T06:39:10;231.93;;;70.33;;
3423;SDS011;72707;50.120;8.500;2024-03-07T06:41:37;213.00;;;64.30;;
3423;SDS011;72707;50.120;8.500;2024-03-07T06:44:03;203.20;;;60.33;;
3423;SDS011;72707;50.120;8.500;2024-03-07T06:46:29;231.13;;;73.50;;
3423;SDS011;72707;50.120;8.500;2024-03-07T06:48:57;229.47;;;68.67;;
3423;SDS011;72707;50.120;8.500;2024-03-07T06:51:23;221.80;;;67.80;;
3423;SDS011;72707;50.120;8.500;2024-03-07T06:53:49;225.87;;;67.47;;
3423;SDS011;72707;50.120;8.500;2024-03-07T06:56:16;220.77;;;65.97;;
3423;SDS011;72707;50.120;8.500;2024-03-07T06:58:42;212.70;;;62.30;;
3423;SDS011;72707;50.120;8.500;2024-03-07T07:01:08;235.73;;;70.13;;
3423;SDS011;72707;50.120;8.500;2024-03-07T07:03:38;227.20;;;68.83;;
3423;SDS011;72707;50.120;8.500;2024-03-07T07:06:05;218.63;;;65.77;;
3423;SDS011;72707;50.120;8.500;2024-03-07T07:08:31;227.87;;;69.80;;
3423;SDS011;72707;50.120;8.500;2024-03-07T07:10:57;243.83;;;74.90;;
3423;SDS011;72707;50.120;8.500;2024-03-07T07:13:23;248.30;;;76.50;;
3423;SDS011;72707;50.120;8.500;2024-03-07T07:15:49;246.43;;;77.33;;
3423;SDS011;72707;50.120;8.500;2024-03-07T07:18:15;229.93;;;69.07;;
3423;SDS011;72707;50.120;8.500;2024-03-07T07:20:42;267.30;;;79.67;;
3423;SDS011;72707;50.120;8.500;2024-03-07T07:23:08;254.80;;;76.63;;
3423;SDS011;72707;50.120;8.500;2024-03-07T07:25:34;241.43;;;72.70;;
3423;SDS011;72707;50.120;8.500;2024-03-07T07:28:00;256.37;;;74.33;;
3423;SDS011;72707;50.120;8.500;2024-03-07T07:30:29;267.73;;;76.13;;
3423;SDS011;72707;50.120;8.500;2024-03-07T07:32:55;268.43;;;76.77;;
3423;SDS011;72707;50.120;8.500;2024-03-07T07:35:21;266.33;;;74.97;;
3423;SDS011;72707;50.120;8.500;2024-03-07T07:37:48;266.30;;;76.40;;
3423;SDS011;72707;50.120;8.500;2024-03-07T07:40:17;259.73;;;73.90;;
3423;SDS011;72707;50.120;8.500;2024-03-07T07:42:47;267.30;;;76.70;;
3423;SDS011;72707;50.120;8.500;2024-03-07T07:45:14;257.57;;;72.27;;
3423;SDS011;72707;50.120;8.500;2024-03-07T07:47:41;249.80;;;70.80;;
3423;SDS011;72707;50.120;8.500;2024-03-07T07:50:09;276.23;;;74.20;;
3423;SDS011;72707;50.120;8.500;2024-03-07T07:52:54;254.67;;;70.97;;
3423;SDS011;72707;50.120;8.500;2024-03-07T07:55:21;254.83;;;69.03;;
3423;SDS011;72707;50.120;8.500;2024-03-07T07:57:49;264.90;;;77.73;;
3423;SDS011;72707;50.120;8.500;2024-03-07T08:00:23;259.77;;;70.67;;
3423;SDS011;72707;50.120;8.500;2024-03-07T08:02:51;276.73;;;80.07;;
3423;SDS011;72707;50.120;8.500;2024-03-07T08:05:20;268.70;;;74.60;;
3423;SDS011;72707;50.120;8.500;2024-03-07T08:07:48;273.53;;;79.87;;
3423;SDS011;72707;50.120;8.500;2024-03-07T08:10:14;269.20;;;82.03;;
3423;SDS011;72707;50.120;8.500;2024-03-07T08:12:40;262.93;;;73.57;;
3423;SDS011;72707;50.120;8.500;2024-03-07T08:15:10;264.27;;;74.50;;
3423;SDS011;72707;50.120;8.500;2024-03-07T08:17:39;274.50;;;79.20;;
3423;SDS011;72707;50.120;8.500;2024-03-07T08:20:05;276.83;;;78.20;;
3423;SDS011;72707;50.120;8.500;2024-03-07T08:22:40;268.53;;;76.80;;
3423;SDS011;72707;50.120;8.500;2024-03-07T08:25:08;264.13;;;72.60;;
3423;SDS011;72707;50.120;8.500;2024-03-07T08:27:35;266.63;;;77.63;;
3423;SDS011;72707;50.120;8.500;2024-03-07T08:30:02;274.77;;;79.80;;
3423;SDS011;72707;50.120;8.500;2024-03-07T08:32:28;271.03;;;78.33;;
3423;SDS011;72707;50.120;8.500;2024-03-07T08:34:54;279.83;;;79.73;;
3423;SDS011;72707;50.120;8.500;2024-03-07T08:37:21;280.70;;;82.33;;
3423;SDS011;72707;50.120;8.500;2024-03-07T08:39:47;276.00;;;79.47;;
3423;SDS011;72707;50.120;8.500;2024-03-07T08:42:13;273.03;;;75.87;;
3423;SDS011;72707;50.120;8.500;2024-03-07T08:44:41;270.90;;;76.23;;
3423;SDS011;72707;50.120;8.500;2024-03-07T08:47:07;274.17;;;80.97;;
3423;SDS011;72707;50.120;8.500;2024-03-07T08:49:34;270.57;;;75.17;;
3423;SDS011;72707;50.120;8.500;2024-03-07T08:52:00;277.13;;;78.93;;
3423;SDS011;72707;50.120;8.500;2024-03-07T08:54:26;280.53;;;77.47;;
3423;SDS011;72707;50.120;8.500;2024-03-07T08:56:52;275.93;;;80.20;;
3423;SDS011;72707;50.120;8.500;2024-03-07T08:59:18;277.90;;;78.50;;
3423;SDS011;72707;50.120;8.500;2024-03-07T09:01:44;277.20;;;79.67;;
3423;SDS011;72707;50.120;8.500;2024-03-07T09:04:10;274.90;;;75.83;;
3423;SDS011;72707;50.120;8.500;2024-03-07T09:06:36;283.03;;;81.47;;
3423;SDS011;72707;50.120;8.500;2024-03-07T09:09:03;279.37;;;78.83;;
3423;SDS011;72707;50.120;8.500;2024-03-07T09:11:28;280.13;;;81.40;;
3423;SDS011;72707;50.120;8.500;2024-03-07T09:13:54;277.30;;;75.97;;
3423;SDS011;72707;50.120;8.500;2024-03-07T09:16:20;288.63;;;80.87;;
3423;SDS011;72707;50.120;8.500;2024-03-07T09:18:47;295.00;;;84.37;;
3423;SDS011;72707;50.120;8.500;2024-03-07T09:21:14;277.93;;;82.33;;
3423;SDS011;72707;50.120;8.500;2024-03-07T09:23:40;279.67;;;81.80;;
3423;SDS011;72707;50.120;8.500;2024-03-07T09:26:06;279.73;;;81.30;;
3423;SDS011;72707;50.120;8.500;2024-03-07T09:28:33;283.77;;;84.83;;
3423;SDS011;72707;50.120;8.500;2024-03-07T09:31:00;298.07;;;89.83;;
3423;SDS011;72707;50.120;8.500;2024-03-07T09:33:26;288.80;;;87.10;;
3423;SDS011;72707;50.120;8.500;2024-03-07T09:35:52;288.67;;;87.53;;
3423;SDS011;72707;50.120;8.500;2024-03-07T09:38:18;292.67;;;88.33;;
3423;SDS011;72707;50.120;8.500;2024-03-07T09:40:46;283.33;;;86.23;;
3423;SDS011;72707;50.120;8.500;2024-03-07T09:43:11;282.57;;;84.43;;
3423;SDS011;72707;50.120;8.500;2024-03-07T09:45:38;286.83;;;85.33;;
3423;SDS011;72707;50.120;8.500;2024-03-07T09:48:05;287.57;;;86.07;;
3423;SDS011;72707;50.120;8.500;2024-03-07T09:50:34;289.23;;;86.37;;
3423;SDS011;72707;50.120;8.500;2024-03-07T09:53:01;283.97;;;82.53;;
3423;SDS011;72707;50.120;8.500;2024-03-07T09:55:28;278.57;;;82.07;;
3423;SDS011;72707;50.120;8.500;2024-03-07T09:57:54;286.17;;;84.17;;
3423;SDS011;72707;50.120;8.500;2024-03-07T10:00:20;284.90;;;83.50;;
3423;SDS011;72707;50.120;8.500;2024-03-07T10:03:02;293.73;;;85.80;;
3423;SDS011;72707;50.120;8.500;2024-03-07T10:05:31;283.53;;;85.33;;
3423;SDS011;72707;50.120;8.500;2024-03-07T10:07:58;285.13;;;85.00;;
3423;SDS011;72707;50.120;8.500;2024-03-07T10:10:24;297.93;;;84.40;;
3423;SDS011;72707;50.120;8.500;2024-03-07T10:12:51;293.93;;;85.63;;
3423;SDS011;72707;50.120;8.500;2024-03-07T10:15:28;285.33;;;84.20;;
3423;SDS011;72707;50.120;8.500;2024-03-07T10:17:54;292.37;;;85.17;;
3423;SDS011;72707;50.120;8.500;2024-03-07T10:20:20;287.23;;;85.37;;
3423;SDS011;72707;50.120;8.500;2024-03-07T10:22:47;283.50;;;84.87;;
3423;SDS011;72707;50.120;8.500;2024-03-07T10:25:16;282.50;;;83.70;;
3423;SDS011;72707;50.120;8.500;2024-03-07T10:27:43;291.43;;;90.03;;
3423;SDS011;72707;50.120;8.500;2024-03-07T10:30:09;293.00;;;89.37;;
3423;SDS011;72707;50.120;8.500;2024-03-07T10:32:35;287.63;;;86.33;;
3423;SDS011;72707;50.120;8.500;2024-03-07T10:35:02;290.80;;;87.37;;
3423;SDS011;72707;50.120;8.500;2024-03-07T10:37:28;291.70;;;88.80;;
3423;SDS011;72707;50.120;8.500;2024-03-07T10:39:55;297.17;;;91.43;;
3423;SDS011;72707;50.120;8.500;2024-03-07T10:42:21;295.57;;;89.20;;
3423;SDS011;72707;50.120;8.500;2024-03-07T10:44:52;285.00;;;90.00;;
3423;SDS011;72707;50.120;8.500;2024-03-07T10:47:22;295.70;;;95.73;;
3423;SDS011;72707;50.120;8.500;2024-03-07T10:52:28;293.93;;;101.43;;
3423;SDS011;72707;50.120;8.500;2024-03-07T10:57:38;284.23;;;97.13;;
3423;SDS011;72707;50.120;8.500;2024-03-07T11:00:13;286.70;;;99.13;;
3423;SDS011;72707;50.120;8.500;2024-03-07T11:02:58;281.23;;;96.03;;
3423;SDS011;72707;50.120;8.500;2024-03-07T11:05:25;280.83;;;95.63;;
3423;SDS011;72707;50.120;8.500;2024-03-07T11:07:54;278.40;;;96.13;;
3423;SDS011;72707;50.120;8.500;2024-03-07T11:10:20;282.70;;;96.40;;
3423;SDS011;72707;50.120;8.500;2024-03-07T11:12:47;298.00;;;102.93;;
3423;SDS011;72707;50.120;8.500;2024-03-07T11:15:16;283.83;;;98.20;;
3423;SDS011;72707;50.120;8.500;2024-03-07T11:17:45;284.73;;;101.33;;
3423;SDS011;72707;50.120;8.500;2024-03-07T11:20:21;275.60;;;96.37;;
3423;SDS011;72707;50.120;8.500;2024-03-07T11:22:47;288.53;;;99.90;;
3423;SDS011;72707;50.120;8.500;2024-03-07T11:25:14;281.43;;;94.80;;
3423;SDS011;72707;50.120;8.500;2024-03-07T11:27:50;278.27;;;95.40;;
3423;SDS011;72707;50.120;8.500;2024-03-07T11:30:18;272.17;;;91.60;;
3423;SDS011;72707;50.120;8.500;2024-03-07T11:32:46;283.13;;;97.70;;
3423;SDS011;72707;50.120;8.500;2024-03-07T11:35:16;290.03;;;100.17;;
3423;SDS011;72707;50.120;8.500;2024-03-07T11:38:00;289.47;;;99.10;;
3423;SDS011;72707;50.120;8.500;2024-03-07T11:42:55;284.03;;;95.87;;
3423;SDS011;72707;50.120;8.500;2024-03-07T11:45:24;279.37;;;94.40;;
3423;SDS011;72707;50.120;8.500;2024-03-07T11:47:55;276.47;;;91.73;;
3423;SDS011;72707;50.120;8.500;2024-03-07T11:50:34;275.70;;;90.00;;
3423;SDS011;72707;50.120;8.500;2024-03-07T11:53:02;288.90;;;99.67;;
3423;SDS011;72707;50.120;8.500;2024-03-07T11:55:32;281.67;;;93.13;;
3423;SDS011;72707;50.120;8.500;2024-03-07T11:58:06;288.00;;;98.67;;
3423;SDS011;72707;50.120;8.500;2024-03-07T12:00:33;289.93;;;100.53;;
3423;SDS011;72707;50.120;8.500;2024-03-07T12:02:59;300.23;;;107.30;;
3423;SDS011;72707;50.120;8.500;2024-03-07T12:05:25;304.67;;;109.80;;
3423;SDS011;72707;50.120;8.500;2024-03-07T12:07:52;309.80;;;118.10;;
3423;SDS011;72707;50.120;8.500;2024-03-07T12:10:18;302.93;;;113.17;;
3423;SDS011;72707;50.120;8.500;2024-03-07T12:12:49;317.30;;;124.50;;
3423;SDS011;72707;50.120;8.500;2024-03-07T12:15:15;320.53;;;130.97;;
3423;SDS011;72707;50.120;8.500;2024-03-07T12:17:44;310.33;;;127.33;;
3423;SDS011;72707;50.120;8.500;2024-03-07T12:20:11;311.43;;;129.87;;
3423;SDS011;72707;50.120;8.500;2024-03-07T12:22:50;315.30;;;130.27;;
3423;SDS011;72707;50.120;8.500;2024-03-07T12:25:21;326.37;;;132.27;;
3423;SDS011;72707;50.120;8.500;2024-03-07T12:28:08;309.63;;;122.70;;
3423;SDS011;72707;50.120;8.500;2024-03-07T12:30:52;307.23;;;117.80;;
3423;SDS011;72707;50.120;8.500;2024-03-07T12:33:19;324.10;;;127.93;;
3423;SDS011;72707;50.120;8.500;2024-03-07T12:38:13;308.07;;;120.13;;
3423;SDS011;72707;50.120;8.500;2024-03-07T12:40:41;315.53;;;130.13;;
3423;SDS011;72707;50.120;8.500;2024-03-07T12:43:20;308.70;;;121.83;;
3423;SDS011;72707;50.120;8.500;2024-03-07T12:45:52;309.87;;;126.30;;
3423;SDS011;72707;50.120;8.500;2024-03-07T12:48:18;312.30;;;129.30;;
3423;SDS011;72707;50.120;8.500;2024-03-07T12:50:46;304.33;;;123.90;;
3423;SDS011;72707;50.120;8.500;2024-03-07T12:53:15;310.53;;;125.30;;
3423;SDS011;72707;50.120;8.500;2024-03-07T12:55:43;312.13;;;128.03;;
3423;SDS011;72707;50.120;8.500;2024-03-07T12:58:09;311.63;;;130.27;;
3423;SDS011;72707;50.120;8.500;2024-03-07T13:00:41;307.30;;;124.57;;
3423;SDS011;72707;50.120;8.500;2024-03-07T13:03:08;313.07;;;126.30;;
3423;SDS011;72707;50.120;8.500;2024-03-07T13:05:39;315.83;;;125.53;;
3423;SDS011;72707;50.120;8.500;2024-03-07T13:08:06;316.03;;;126.30;;
3423;SDS011;72707;50.120;8.500;2024-03-07T13:10:39;310.20;;;126.20;;
3423;SDS011;72707;50.120;8.500;2024-03-07T13:13:05;311.37;;;126.60;;
3423;SDS011;72707;50.120;8.500;2024-03-07T13:15:31;315.93;;;130.37;;
3423;SDS011;72707;50.120;8.500;2024-03-07T13:17:57;312.10;;;132.33;;
3423;SDS011;72707;50.120;8.500;2024-03-07T13:20:22;314.63;;;133.13;;
3423;SDS011;72707;50.120;8.500;2024-03-07T13:22:51;315.47;;;134.70;;
3423;SDS011;72707;50.120;8.500;2024-03-07T13:25:22;320.07;;;142.50;;
3423;SDS011;72707;50.120;8.500;2024-03-07T13:27:57;320.17;;;149.77;;
3423;SDS011;72707;50.120;8.500;2024-03-07T13:30:49;319.03;;;144.20;;
3423;SDS011;72707;50.120;8.500;2024-03-07T13:33:15;320.23;;;146.87;;
3423;SDS011;72707;50.120;8.500;2024-03-07T13:35:41;313.83;;;141.50;;
3423;SDS011;72707;50.120;8.500;2024-03-07T13:38:06;311.37;;;137.20;;
3423;SDS011;72707;50.120;8.500;2024-03-07T13:40:33;318.10;;;136.30;;
3423;SDS011;72707;50.120;8.500;2024-03-07T13:43:05;320.93;;;136.27;;
3423;SDS011;72707;50.120;8.500;2024-03-07T13:45:31;316.40;;;129.80;;
3423;SDS011;72707;50.120;8.500;2024-03-07T13:48:04;310.57;;;125.67;;
3423;SDS011;72707;50.120;8.500;2024-03-07T13:50:33;306.83;;;129.03;;
3423;SDS011;72707;50.120;8.500;2024-03-07T13:52:59;312.23;;;135.77;;
3423;SDS011;72707;50.120;8.500;2024-03-07T13:55:55;308.47;;;134.13;;
3423;SDS011;72707;50.120;8.500;2024-03-07T14:04:34;324.57;;;187.77;;
3423;SDS011;72707;50.120;8.500;2024-03-07T14:13:35;322.33;;;207.17;;
3423;SDS011;72707;50.120;8.500;2024-03-07T14:22:24;312.00;;;150.50;;
3423;SDS011;72707;50.120;8.500;2024-03-07T14:25:28;305.27;;;135.03;;
3423;SDS011;72707;50.120;8.500;2024-03-07T14:31:12;301.60;;;124.70;;
3423;SDS011;72707;50.120;8.500;2024-03-07T14:33:48;296.47;;;115.70;;
3423;SDS011;72707;50.120;8.500;2024-03-07T14:36:45;300.43;;;115.07;;
3423;SDS011;72707;50.120;8.500;2024-03-07T14:39:15;290.43;;;108.30;;
3423;SDS011;72707;50.120;8.500;2024-03-07T14:41:52;298.27;;;110.87;;
3423;SDS011;72707;50.120;8.500;2024-03-07T14:44:23;310.00;;;115.80;;
3423;SDS011;72707;50.120;8.500;2024-03-07T14:46:52;294.63;;;111.23;;
3423;SDS011;72707;50.120;8.500;2024-03-07T14:49:22;292.27;;;114.00;;
3423;SDS011;72707;50.120;8.500;2024-03-07T14:51:48;298.80;;;112.43;;
3423;SDS011;72707;50.120;8.500;2024-03-07T14:54:20;302.70;;;115.60;;
3423;SDS011;72707;50.120;8.500;2024-03-07T14:56:46;307.20;;;116.67;;
3423;SDS011;72707;50.120;8.500;2024-03-07T14:59:12;304.93;;;113.53;;
3423;SDS011;72707;50.120;8.500;2024-03-07T15:01:38;295.60;;;106.20;;
3423;SDS011;72707;50.120;8.500;2024-03-07T15:04:04;295.87;;;106.90;;
3423;SDS011;72707;50.120;8.500;2024-03-07T15:06:31;291.93;;;100.43;;
3423;SDS011;72707;50.120;8.500;2024-03-07T15:08:58;295.73;;;101.77;;
3423;SDS011;72707;50.120;8.500;2024-03-07T15:11:34;297.83;;;102.60;;
3423;SDS011;72707;50.120;8.500;2024-03-07T15:14:00;298.23;;;101.70;;
3423;SDS011;72707;50.120;8.500;2024-03-07T15:16:29;293.30;;;98.67;;
3423;SDS011;72707;50.120;8.500;2024-03-07T15:18:59;299.83;;;97.33;;
3423;SDS011;72707;50.120;8.500;2024-03-07T15:21:25;296.13;;;97.10;;
3423;SDS011;72707;50.120;8.500;2024-03-07T15:23:52;288.47;;;97.53;;
3423;SDS011;72707;50.120;8.500;2024-03-07T15:26:18;295.27;;;96.87;;
3423;SDS011;72707;50.120;8.500;2024-03-07T15:28:48;287.13;;;94.40;;
3423;SDS011;72707;50.120;8.500;2024-03-07T15:31:14;291.07;;;93.90;;
3423;SDS011;72707;50.120;8.500;2024-03-07T15:33:40;292.07;;;95.63;;
3423;SDS011;72707;50.120;8.500;2024-03-07T15:36:08;284.67;;;92.40;;
3423;SDS011;72707;50.120;8.500;2024-03-07T15:38:34;289.80;;;92.03;;
3423;SDS011;72707;50.120;8.500;2024-03-07T15:41:03;299.03;;;97.73;;
3423;SDS011;72707;50.120;8.500;2024-03-07T15:43:29;298.27;;;99.90;;
3423;SDS011;72707;50.120;8.500;2024-03-07T15:45:55;293.67;;;96.70;;
3423;SDS011;72707;50.120;8.500;2024-03-07T15:48:24;298.93;;;99.57;;
3423;SDS011;72707;50.120;8.500;2024-03-07T15:50:50;287.23;;;94.70;;
3423;SDS011;72707;50.120;8.500;2024-03-07T15:53:17;307.13;;;106.33;;